sensor_id;sensor_type;location;lat;lon;timestamp;pressure;altitude;pressure_sealevel;temperature;humidity
61488;BME280;47351;53.326;-6.298;2023-06-04T00:00:57;102250.85;;;14.05;59.90
61488;BME280;47351;53.326;-6.298;2023-06-04T00:03:48;102249.90;;;14.02;60.25
61488;BME280;47351;53.326;-6.298;2023-06-04T00:06:38;102247.86;;;14.00;60.29
61488;BME280;47351;53.326;-6.298;2023-06-04T00:09:34;102247.17;;;14.00;60.39
61488;BME280;47351;53.326;-6.298;2023-06-04T00:12:28;102248.42;;;13.98;60.27
61488;BME280;47351;53.326;-6.298;2023-06-04T00:15:20;102249.16;;;13.96;60.05
61488;BME280;47351;53.326;-6.298;2023-06-04T00:18:13;102247.77;;;13.93;60.27
61488;BME280;47351;53.326;-6.298;2023-06-04T00:21:04;102245.42;;;13.91;60.16
61488;BME280;47351;53.326;-6.298;2023-06-04T00:23:54;102243.73;;;13.90;60.04
61488;BME280;47351;53.326;-6.298;2023-06-04T00:27:07;102242.30;;;13.88;60.19
61488;BME280;47351;53.326;-6.298;2023-06-04T00:29:58;102244.86;;;13.88;60.38
61488;BME280;47351;53.326;-6.298;2023-06-04T00:32:48;102244.18;;;13.87;60.30
61488;BME280;47351;53.326;-6.298;2023-06-04T00:35:42;102243.81;;;13.86;60.13
61488;BME280;47351;53.326;-6.298;2023-06-04T00:38:33;102243.22;;;13.82;60.05
61488;BME280;47351;53.326;-6.298;2023-06-04T00:41:24;102244.69;;;13.80;60.29
61488;BME280;47351;53.326;-6.298;2023-06-04T00:44:15;102242.08;;;13.77;60.25
61488;BME280;47351;53.326;-6.298;2023-06-04T00:47:26;102236.04;;;13.75;60.10
61488;BME280;47351;53.326;-6.298;2023-06-04T00:50:16;102232.14;;;13.72;60.13
61488;BME280;47351;53.326;-6.298;2023-06-04T00:53:11;102230.89;;;13.71;59.96
61488;BME280;47351;53.326;-6.298;2023-06-04T00:56:02;102232.02;;;13.68;59.97
61488;BME280;47351;53.326;-6.298;2023-06-04T00:58:55;102234.71;;;13.66;59.91
61488;BME280;47351;53.326;-6.298;2023-06-04T01:01:48;102234.34;;;13.64;59.83
61488;BME280;47351;53.326;-6.298;2023-06-04T01:04:42;102232.60;;;13.61;59.80
61488;BME280;47351;53.326;-6.298;2023-06-04T01:07:44;102230.90;;;13.58;59.78
61488;BME280;47351;53.326;-6.298;2023-06-04T01:10:51;102231.08;;;13.55;59.56
61488;BME280;47351;53.326;-6.298;2023-06-04T01:14:00;102231.59;;;13.51;59.38
61488;BME280;47351;53.326;-6.298;2023-06-04T01:16:52;102226.42;;;13.49;59.32
61488;BME280;47351;53.326;-6.298;2023-06-04T01:20:06;102227.35;;;13.46;59.36
61488;BME280;47351;53.326;-6.298;2023-06-04T01:23:10;102230.47;;;13.43;59.52
61488;BME280;47351;53.326;-6.298;2023-06-04T01:26:08;102229.27;;;13.41;59.37
61488;BME280;47351;53.326;-6.298;2023-06-04T01:29:02;102226.33;;;13.37;59.33
61488;BME280;47351;53.326;-6.298;2023-06-04T01:31:55;102223.42;;;13.34;59.41
61488;BME280;47351;53.326;-6.298;2023-06-04T01:34:46;102222.56;;;13.32;59.42
61488;BME280;47351;53.326;-6.298;2023-06-04T01:37:57;102225.73;;;13.30;59.34
61488;BME280;47351;53.326;-6.298;2023-06-04T01:41:01;102223.88;;;13.29;59.41
61488;BME280;47351;53.326;-6.298;2023-06-04T01:43:56;102221.95;;;13.27;59.33
61488;BME280;47351;53.326;-6.298;2023-06-04T01:47:03;102220.33;;;13.25;59.43
61488;BME280;47351;53.326;-6.298;2023-06-04T01:49:56;102218.00;;;13.22;59.58
61488;BME280;47351;53.326;-6.298;2023-06-04T01:52:58;102215.11;;;13.18;59.53
61488;BME280;47351;53.326;-6.298;2023-06-04T01:55:54;102212.49;;;13.16;59.33
61488;BME280;47351;53.326;-6.298;2023-06-04T01:58:49;102214.02;;;13.11;59.28
61488;BME280;47351;53.326;-6.298;2023-06-04T02:01:52;102213.95;;;13.08;59.50
61488;BME280;47351;53.326;-6.298;2023-06-04T02:04:43;102215.81;;;13.05;59.93
61488;BME280;47351;53.326;-6.298;2023-06-04T02:07:46;102215.48;;;13.03;59.95
61488;BME280;47351;53.326;-6.298;2023-06-04T02:10:50;102217.74;;;12.99;60.09
61488;BME280;47351;53.326;-6.298;2023-06-04T02:13:48;102221.02;;;12.95;60.15
61488;BME280;47351;53.326;-6.298;2023-06-04T02:16:41;102222.25;;;12.91;60.15
61488;BME280;47351;53.326;-6.298;2023-06-04T02:19:45;102222.41;;;12.87;60.18
61488;BME280;47351;53.326;-6.298;2023-06-04T02:22:48;102220.11;;;12.85;60.19
61488;BME280;47351;53.326;-6.298;2023-06-04T02:25:42;102221.15;;;12.83;60.31
61488;BME280;47351;53.326;-6.298;2023-06-04T02:28:48;102220.57;;;12.82;60.38
61488;BME280;47351;53.326;-6.298;2023-06-04T02:31:49;102218.34;;;12.81;60.45
61488;BME280;47351;53.326;-6.298;2023-06-04T02:34:46;102217.39;;;12.79;60.41
61488;BME280;47351;53.326;-6.298;2023-06-04T02:37:49;102219.31;;;12.78;60.55
61488;BME280;47351;53.326;-6.298;2023-06-04T02:40:43;102217.75;;;12.75;60.69
61488;BME280;47351;53.326;-6.298;2023-06-04T02:43:45;102219.55;;;12.71;60.99
61488;BME280;47351;53.326;-6.298;2023-06-04T02:46:46;102220.36;;;12.68;60.98
61488;BME280;47351;53.326;-6.298;2023-06-04T02:49:40;102219.16;;;12.65;61.16
61488;BME280;47351;53.326;-6.298;2023-06-04T02:52:31;102221.33;;;12.63;61.13
61488;BME280;47351;53.326;-6.298;2023-06-04T02:55:38;102221.70;;;12.61;61.39
61488;BME280;47351;53.326;-6.298;2023-06-04T02:58:31;102220.77;;;12.59;61.36
61488;BME280;47351;53.326;-6.298;2023-06-04T03:01:48;102224.95;;;12.57;61.36
61488;BME280;47351;53.326;-6.298;2023-06-04T03:04:59;102219.14;;;12.53;61.23
61488;BME280;47351;53.326;-6.298;2023-06-04T03:08:03;102218.19;;;12.51;61.14
61488;BME280;47351;53.326;-6.298;2023-06-04T03:11:07;102216.96;;;12.49;61.34
61488;BME280;47351;53.326;-6.298;2023-06-04T03:14:18;102216.98;;;12.47;61.35
61488;BME280;47351;53.326;-6.298;2023-06-04T03:17:30;102216.08;;;12.47;61.45
61488;BME280;47351;53.326;-6.298;2023-06-04T03:20:33;102213.77;;;12.45;61.33
61488;BME280;47351;53.326;-6.298;2023-06-04T03:23:37;102207.98;;;12.42;61.51
61488;BME280;47351;53.326;-6.298;2023-06-04T03:26:39;102208.05;;;12.39;61.74
61488;BME280;47351;53.326;-6.298;2023-06-04T03:29:35;102207.02;;;12.36;61.73
61488;BME280;47351;53.326;-6.298;2023-06-04T03:32:38;102205.84;;;12.33;61.65
61488;BME280;47351;53.326;-6.298;2023-06-04T03:35:29;102206.73;;;12.31;61.76
61488;BME280;47351;53.326;-6.298;2023-06-04T03:38:29;102206.08;;;12.28;61.75
61488;BME280;47351;53.326;-6.298;2023-06-04T03:41:30;102205.73;;;12.26;61.95
61488;BME280;47351;53.326;-6.298;2023-06-04T03:44:31;102206.23;;;12.25;62.08
61488;BME280;47351;53.326;-6.298;2023-06-04T03:47:24;102207.28;;;12.23;62.11
61488;BME280;47351;53.326;-6.298;2023-06-04T03:50:24;102204.04;;;12.21;62.32
61488;BME280;47351;53.326;-6.298;2023-06-04T03:53:18;102205.92;;;12.18;62.18
61488;BME280;47351;53.326;-6.298;2023-06-04T03:56:09;102208.48;;;12.15;62.10
61488;BME280;47351;53.326;-6.298;2023-06-04T03:59:20;102213.08;;;12.12;62.18
61488;BME280;47351;53.326;-6.298;2023-06-04T04:02:14;102211.08;;;12.10;62.51
61488;BME280;47351;53.326;-6.298;2023-06-04T04:05:19;102205.51;;;12.08;62.65
61488;BME280;47351;53.326;-6.298;2023-06-04T04:08:11;102204.64;;;12.05;62.71
61488;BME280;47351;53.326;-6.298;2023-06-04T04:11:19;102206.60;;;12.03;62.86
61488;BME280;47351;53.326;-6.298;2023-06-04T04:14:10;102204.92;;;12.02;62.90
61488;BME280;47351;53.326;-6.298;2023-06-04T04:17:11;102205.37;;;12.01;63.18
61488;BME280;47351;53.326;-6.298;2023-06-04T04:20:02;102208.77;;;12.01;63.26
61488;BME280;47351;53.326;-6.298;2023-06-04T04:23:15;102201.56;;;12.02;63.33
61488;BME280;47351;53.326;-6.298;2023-06-04T04:26:16;102208.40;;;12.01;63.37
61488;BME280;47351;53.326;-6.298;2023-06-04T04:29:10;102209.70;;;12.00;63.44
61488;BME280;47351;53.326;-6.298;2023-06-04T04:32:13;102212.73;;;11.99;63.41
61488;BME280;47351;53.326;-6.298;2023-06-04T04:35:17;102220.95;;;11.99;63.59
61488;BME280;47351;53.326;-6.298;2023-06-04T04:38:09;102221.89;;;11.98;63.62
61488;BME280;47351;53.326;-6.298;2023-06-04T04:41:05;102219.44;;;11.98;63.69
61488;BME280;47351;53.326;-6.298;2023-06-04T04:44:10;102222.80;;;11.98;64.02
61488;BME280;47351;53.326;-6.298;2023-06-04T04:47:04;102226.13;;;11.99;64.28
61488;BME280;47351;53.326;-6.298;2023-06-04T04:50:06;102222.73;;;12.01;64.46
61488;BME280;47351;53.326;-6.298;2023-06-04T04:53:17;102223.38;;;12.06;64.53
61488;BME280;47351;53.326;-6.298;2023-06-04T04:56:21;102226.08;;;12.13;64.59
61488;BME280;47351;53.326;-6.298;2023-06-04T04:59:16;102230.69;;;12.19;64.70
61488;BME280;47351;53.326;-6.298;2023-06-04T05:02:07;102225.70;;;12.27;64.86
61488;BME280;47351;53.326;-6.298;2023-06-04T05:04:58;102226.25;;;12.37;64.81
61488;BME280;47351;53.326;-6.298;2023-06-04T05:08:00;102225.73;;;12.47;64.92
61488;BME280;47351;53.326;-6.298;2023-06-04T05:10:59;102225.14;;;12.56;64.90
61488;BME280;47351;53.326;-6.298;2023-06-04T05:13:51;102221.61;;;12.62;64.74
61488;BME280;47351;53.326;-6.298;2023-06-04T05:16:56;102227.81;;;12.67;64.41
61488;BME280;47351;53.326;-6.298;2023-06-04T05:20:07;102225.48;;;12.70;64.40
61488;BME280;47351;53.326;-6.298;2023-06-04T05:23:12;102226.64;;;12.74;64.26
61488;BME280;47351;53.326;-6.298;2023-06-04T05:26:16;102225.17;;;12.76;64.09
61488;BME280;47351;53.326;-6.298;2023-06-04T05:29:09;102230.13;;;12.79;64.05
61488;BME280;47351;53.326;-6.298;2023-06-04T05:32:06;102235.27;;;12.82;64.01
61488;BME280;47351;53.326;-6.298;2023-06-04T05:35:17;102236.63;;;12.84;64.05
61488;BME280;47351;53.326;-6.298;2023-06-04T05:38:28;102241.28;;;12.87;64.07
61488;BME280;47351;53.326;-6.298;2023-06-04T05:41:23;102236.81;;;12.90;64.01
61488;BME280;47351;53.326;-6.298;2023-06-04T05:44:18;102236.66;;;12.94;64.13
61488;BME280;47351;53.326;-6.298;2023-06-04T05:47:12;102241.34;;;12.98;64.18
61488;BME280;47351;53.326;-6.298;2023-06-04T05:50:03;102243.74;;;13.03;64.29
61488;BME280;47351;53.326;-6.298;2023-06-04T05:53:06;102241.77;;;13.09;64.37
61488;BME280;47351;53.326;-6.298;2023-06-04T05:56:17;102243.05;;;13.15;64.46
61488;BME280;47351;53.326;-6.298;2023-06-04T05:59:11;102247.48;;;13.22;64.62
61488;BME280;47351;53.326;-6.298;2023-06-04T06:02:22;102253.35;;;13.28;64.77
61488;BME280;47351;53.326;-6.298;2023-06-04T06:05:16;102255.38;;;13.36;65.03
61488;BME280;47351;53.326;-6.298;2023-06-04T06:08:18;102253.07;;;13.43;65.11
61488;BME280;47351;53.326;-6.298;2023-06-04T06:11:08;102254.70;;;13.51;65.25
61488;BME280;47351;53.326;-6.298;2023-06-04T06:13:59;102253.27;;;13.59;65.49
61488;BME280;47351;53.326;-6.298;2023-06-04T06:16:53;102251.16;;;13.66;65.74
61488;BME280;47351;53.326;-6.298;2023-06-04T06:19:47;102253.19;;;13.74;66.07
61488;BME280;47351;53.326;-6.298;2023-06-04T06:22:37;102255.88;;;13.81;66.21
61488;BME280;47351;53.326;-6.298;2023-06-04T06:25:29;102257.13;;;13.89;66.58
61488;BME280;47351;53.326;-6.298;2023-06-04T06:28:37;102258.20;;;13.99;66.89
61488;BME280;47351;53.326;-6.298;2023-06-04T06:31:29;102255.39;;;14.10;67.10
61488;BME280;47351;53.326;-6.298;2023-06-04T06:34:40;102255.28;;;14.22;67.40
61488;BME280;47351;53.326;-6.298;2023-06-04T06:37:30;102254.49;;;14.36;67.71
61488;BME280;47351;53.326;-6.298;2023-06-04T06:40:21;102252.83;;;14.52;68.17
61488;BME280;47351;53.326;-6.298;2023-06-04T06:43:15;102253.20;;;14.69;68.52
61488;BME280;47351;53.326;-6.298;2023-06-04T06:46:05;102255.59;;;14.86;68.56
61488;BME280;47351;53.326;-6.298;2023-06-04T06:48:56;102254.71;;;15.02;68.72
61488;BME280;47351;53.326;-6.298;2023-06-04T06:51:47;102250.65;;;15.18;68.69
61488;BME280;47351;53.326;-6.298;2023-06-04T06:54:48;102253.17;;;15.31;68.47
61488;BME280;47351;53.326;-6.298;2023-06-04T06:57:38;102251.56;;;15.41;68.17
61488;BME280;47351;53.326;-6.298;2023-06-04T07:00:29;102252.00;;;15.51;68.02
61488;BME280;47351;53.326;-6.298;2023-06-04T07:03:20;102255.26;;;15.60;67.84
61488;BME280;47351;53.326;-6.298;2023-06-04T07:06:16;102253.39;;;15.70;67.83
61488;BME280;47351;53.326;-6.298;2023-06-04T07:09:06;102252.45;;;15.80;67.64
61488;BME280;47351;53.326;-6.298;2023-06-04T07:11:57;102257.20;;;15.89;67.53
61488;BME280;47351;53.326;-6.298;2023-06-04T07:14:50;102260.67;;;16.01;67.27
61488;BME280;47351;53.326;-6.298;2023-06-04T07:17:41;102265.14;;;16.10;67.19
61488;BME280;47351;53.326;-6.298;2023-06-04T07:20:31;102269.46;;;16.17;66.81
61488;BME280;47351;53.326;-6.298;2023-06-04T07:23:22;102270.56;;;16.25;66.66
61488;BME280;47351;53.326;-6.298;2023-06-04T07:26:13;102265.23;;;16.33;66.61
61488;BME280;47351;53.326;-6.298;2023-06-04T07:29:09;102263.39;;;16.44;66.54
61488;BME280;47351;53.326;-6.298;2023-06-04T07:32:02;102262.63;;;16.52;66.10
61488;BME280;47351;53.326;-6.298;2023-06-04T07:34:53;102261.80;;;16.58;65.60
61488;BME280;47351;53.326;-6.298;2023-06-04T07:37:44;102262.55;;;16.67;65.06
61488;BME280;47351;53.326;-6.298;2023-06-04T07:40:37;102262.90;;;16.78;64.85
61488;BME280;47351;53.326;-6.298;2023-06-04T07:43:28;102263.45;;;16.88;64.62
61488;BME280;47351;53.326;-6.298;2023-06-04T07:46:19;102261.83;;;16.98;64.52
61488;BME280;47351;53.326;-6.298;2023-06-04T07:49:09;102266.52;;;17.06;63.72
61488;BME280;47351;53.326;-6.298;2023-06-04T07:52:00;102269.77;;;17.17;63.10
61488;BME280;47351;53.326;-6.298;2023-06-04T07:54:51;102273.17;;;17.37;62.60
61488;BME280;47351;53.326;-6.298;2023-06-04T07:57:44;102271.06;;;17.75;61.28
61488;BME280;47351;53.326;-6.298;2023-06-04T08:00:35;102265.93;;;18.32;60.11
61488;BME280;47351;53.326;-6.298;2023-06-04T08:03:26;102267.41;;;18.99;59.02
61488;BME280;47351;53.326;-6.298;2023-06-04T08:06:17;102266.92;;;19.69;57.39
61488;BME280;47351;53.326;-6.298;2023-06-04T08:09:07;102263.36;;;20.35;55.72
61488;BME280;47351;53.326;-6.298;2023-06-04T08:11:59;102257.34;;;21.01;54.22
61488;BME280;47351;53.326;-6.298;2023-06-04T08:14:52;102251.35;;;21.64;52.45
61488;BME280;47351;53.326;-6.298;2023-06-04T08:17:45;102250.95;;;22.28;51.22
61488;BME280;47351;53.326;-6.298;2023-06-04T08:20:36;102252.02;;;22.94;49.87
61488;BME280;47351;53.326;-6.298;2023-06-04T08:23:27;102245.89;;;23.66;48.49
61488;BME280;47351;53.326;-6.298;2023-06-04T08:26:18;102250.64;;;24.35;47.08
61488;BME280;47351;53.326;-6.298;2023-06-04T08:29:08;102245.35;;;24.94;45.41
61488;BME280;47351;53.326;-6.298;2023-06-04T08:31:59;102244.48;;;25.60;43.93
61488;BME280;47351;53.326;-6.298;2023-06-04T08:34:49;102244.89;;;25.97;41.24
61488;BME280;47351;53.326;-6.298;2023-06-04T08:37:40;102247.15;;;26.28;40.80
61488;BME280;47351;53.326;-6.298;2023-06-04T08:40:31;102249.29;;;26.68;40.31
61488;BME280;47351;53.326;-6.298;2023-06-04T08:43:24;102242.17;;;27.25;39.78
61488;BME280;47351;53.326;-6.298;2023-06-04T08:46:15;102242.55;;;27.88;38.63
61488;BME280;47351;53.326;-6.298;2023-06-04T08:49:06;102243.07;;;28.48;37.68
61488;BME280;47351;53.326;-6.298;2023-06-04T08:51:57;102244.39;;;29.03;36.16
61488;BME280;47351;53.326;-6.298;2023-06-04T08:54:49;102241.92;;;29.25;34.29
61488;BME280;47351;53.326;-6.298;2023-06-04T08:57:40;102238.61;;;29.37;33.72
61488;BME280;47351;53.326;-6.298;2023-06-04T09:00:31;102245.71;;;29.68;33.65
61488;BME280;47351;53.326;-6.298;2023-06-04T09:03:22;102245.00;;;30.11;32.92
61488;BME280;47351;53.326;-6.298;2023-06-04T09:06:15;102245.88;;;30.61;32.50
61488;BME280;47351;53.326;-6.298;2023-06-04T09:09:08;102240.59;;;31.14;31.49
61488;BME280;47351;53.326;-6.298;2023-06-04T09:11:59;102240.52;;;31.59;30.55
61488;BME280;47351;53.326;-6.298;2023-06-04T09:14:52;102238.46;;;32.09;30.10
61488;BME280;47351;53.326;-6.298;2023-06-04T09:17:42;102242.10;;;32.51;28.87
61488;BME280;47351;53.326;-6.298;2023-06-04T09:20:33;102241.64;;;32.78;27.89
61488;BME280;47351;53.326;-6.298;2023-06-04T09:23:25;102243.27;;;32.96;27.40
61488;BME280;47351;53.326;-6.298;2023-06-04T09:26:16;102246.14;;;33.25;27.19
61488;BME280;47351;53.326;-6.298;2023-06-04T09:29:07;102241.27;;;33.59;26.63
61488;BME280;47351;53.326;-6.298;2023-06-04T09:32:01;102237.67;;;33.97;26.38
61488;BME280;47351;53.326;-6.298;2023-06-04T09:34:51;102236.18;;;34.41;25.77
61488;BME280;47351;53.326;-6.298;2023-06-04T09:37:43;102237.51;;;34.94;25.39
61488;BME280;47351;53.326;-6.298;2023-06-04T09:40:42;102237.05;;;35.36;24.28
61488;BME280;47351;53.326;-6.298;2023-06-04T09:43:32;102237.64;;;35.49;23.52
61488;BME280;47351;53.326;-6.298;2023-06-04T09:46:24;102237.50;;;35.53;22.56
61488;BME280;47351;53.326;-6.298;2023-06-04T09:49:15;102239.10;;;35.22;22.28
61488;BME280;47351;53.326;-6.298;2023-06-04T09:52:08;102241.41;;;35.16;22.67
61488;BME280;47351;53.326;-6.298;2023-06-04T09:54:59;102248.13;;;35.38;22.91
61488;BME280;47351;53.326;-6.298;2023-06-04T09:57:50;102245.11;;;35.59;22.31
61488;BME280;47351;53.326;-6.298;2023-06-04T10:00:43;102243.60;;;35.66;22.25
61488;BME280;47351;53.326;-6.298;2023-06-04T10:03:35;102243.83;;;35.73;21.73
61488;BME280;47351;53.326;-6.298;2023-06-04T10:06:26;102248.48;;;35.96;21.63
61488;BME280;47351;53.326;-6.298;2023-06-04T10:09:18;102250.16;;;36.09;20.43
61488;BME280;47351;53.326;-6.298;2023-06-04T10:12:14;102253.63;;;35.85;20.51
61488;BME280;47351;53.326;-6.298;2023-06-04T10:15:11;102256.74;;;35.81;20.92
61488;BME280;47351;53.326;-6.298;2023-06-04T10:18:02;102257.79;;;36.09;20.23
61488;BME280;47351;53.326;-6.298;2023-06-04T10:20:54;102259.46;;;36.32;20.09
61488;BME280;47351;53.326;-6.298;2023-06-04T10:23:45;102262.96;;;36.33;20.27
61488;BME280;47351;53.326;-6.298;2023-06-04T10:26:36;102269.23;;;36.37;20.19
61488;BME280;47351;53.326;-6.298;2023-06-04T10:29:27;102274.32;;;36.42;20.24
61488;BME280;47351;53.326;-6.298;2023-06-04T10:32:20;102275.63;;;36.50;20.12
61488;BME280;47351;53.326;-6.298;2023-06-04T10:35:11;102272.01;;;36.64;19.93
61488;BME280;47351;53.326;-6.298;2023-06-04T10:38:09;102275.18;;;36.43;19.15
61488;BME280;47351;53.326;-6.298;2023-06-04T10:41:00;102278.60;;;35.99;19.44
61488;BME280;47351;53.326;-6.298;2023-06-04T10:44:02;102284.83;;;36.02;19.97
61488;BME280;47351;53.326;-6.298;2023-06-04T10:46:56;102280.15;;;36.15;19.79
61488;BME280;47351;53.326;-6.298;2023-06-04T10:49:48;102281.09;;;36.28;19.67
61488;BME280;47351;53.326;-6.298;2023-06-04T10:52:51;102285.58;;;36.47;19.73
61488;BME280;47351;53.326;-6.298;2023-06-04T10:55:44;102283.19;;;36.73;19.19
61488;BME280;47351;53.326;-6.298;2023-06-04T10:58:38;102283.14;;;36.89;19.16
61488;BME280;47351;53.326;-6.298;2023-06-04T11:01:29;102289.66;;;37.05;18.73
61488;BME280;47351;53.326;-6.298;2023-06-04T11:04:21;102290.98;;;37.11;18.69
61488;BME280;47351;53.326;-6.298;2023-06-04T11:07:13;102289.40;;;37.13;18.45
61488;BME280;47351;53.326;-6.298;2023-06-04T11:10:04;102291.31;;;37.04;18.29
61488;BME280;47351;53.326;-6.298;2023-06-04T11:12:55;102290.30;;;36.85;18.32
61488;BME280;47351;53.326;-6.298;2023-06-04T11:15:46;102293.34;;;36.57;18.17
61488;BME280;47351;53.326;-6.298;2023-06-04T11:18:37;102292.44;;;36.68;18.51
61488;BME280;47351;53.326;-6.298;2023-06-04T11:21:28;102292.42;;;36.70;18.27
61488;BME280;47351;53.326;-6.298;2023-06-04T11:24:19;102291.86;;;36.84;18.30
61488;BME280;47351;53.326;-6.298;2023-06-04T11:27:10;102292.22;;;36.98;17.80
61488;BME280;47351;53.326;-6.298;2023-06-04T11:30:21;102296.20;;;37.17;17.65
61488;BME280;47351;53.326;-6.298;2023-06-04T11:33:12;102295.45;;;37.35;17.04
61488;BME280;47351;53.326;-6.298;2023-06-04T11:36:03;102290.47;;;37.23;16.45
61488;BME280;47351;53.326;-6.298;2023-06-04T11:38:58;102291.00;;;37.11;17.04
61488;BME280;47351;53.326;-6.298;2023-06-04T11:41:50;102289.94;;;37.38;16.96
61488;BME280;47351;53.326;-6.298;2023-06-04T11:44:41;102293.59;;;37.36;15.72
61488;BME280;47351;53.326;-6.298;2023-06-04T11:47:37;102296.73;;;37.46;15.00
61488;BME280;47351;53.326;-6.298;2023-06-04T11:50:28;102302.39;;;37.76;15.12
61488;BME280;47351;53.326;-6.298;2023-06-04T11:53:19;102297.40;;;38.09;15.17
61488;BME280;47351;53.326;-6.298;2023-06-04T11:56:10;102293.58;;;37.82;15.34
61488;BME280;47351;53.326;-6.298;2023-06-04T11:59:01;102294.77;;;37.68;15.76
61488;BME280;47351;53.326;-6.298;2023-06-04T12:01:53;102294.23;;;37.46;15.93
61488;BME280;47351;53.326;-6.298;2023-06-04T12:04:44;102292.60;;;37.39;16.20
61488;BME280;47351;53.326;-6.298;2023-06-04T12:07:36;102293.27;;;37.35;16.61
61488;BME280;47351;53.326;-6.298;2023-06-04T12:10:27;102291.35;;;37.33;16.77
61488;BME280;47351;53.326;-6.298;2023-06-04T12:13:18;102290.55;;;37.43;16.84
61488;BME280;47351;53.326;-6.298;2023-06-04T12:16:08;102288.90;;;37.40;16.87
61488;BME280;47351;53.326;-6.298;2023-06-04T12:19:08;102293.61;;;37.39;16.95
61488;BME280;47351;53.326;-6.298;2023-06-04T12:22:03;102290.34;;;37.38;16.88
61488;BME280;47351;53.326;-6.298;2023-06-04T12:24:54;102289.75;;;37.19;16.62
61488;BME280;47351;53.326;-6.298;2023-06-04T12:27:47;102284.24;;;36.95;16.97
61488;BME280;47351;53.326;-6.298;2023-06-04T12:30:39;102286.73;;;36.98;17.01
61488;BME280;47351;53.326;-6.298;2023-06-04T12:33:30;102285.62;;;37.02;17.22
61488;BME280;47351;53.326;-6.298;2023-06-04T12:36:21;102284.88;;;37.03;17.30
61488;BME280;47351;53.326;-6.298;2023-06-04T12:39:11;102280.98;;;36.88;17.02
61488;BME280;47351;53.326;-6.298;2023-06-04T12:42:02;102282.02;;;36.35;17.36
61488;BME280;47351;53.326;-6.298;2023-06-04T12:44:54;102291.23;;;36.23;17.78
61488;BME280;47351;53.326;-6.298;2023-06-04T12:47:44;102290.71;;;36.13;18.04
61488;BME280;47351;53.326;-6.298;2023-06-04T12:50:36;102290.35;;;36.02;18.38
61488;BME280;47351;53.326;-6.298;2023-06-04T12:53:27;102289.86;;;36.07;18.39
61488;BME280;47351;53.326;-6.298;2023-06-04T12:56:17;102287.52;;;36.06;18.59
61488;BME280;47351;53.326;-6.298;2023-06-04T12:59:08;102291.63;;;35.94;18.46
61488;BME280;47351;53.326;-6.298;2023-06-04T13:01:59;102290.35;;;35.45;18.35
61488;BME280;47351;53.326;-6.298;2023-06-04T13:04:49;102290.89;;;35.01;18.86
61488;BME280;47351;53.326;-6.298;2023-06-04T13:07:43;102286.20;;;34.92;18.85
61488;BME280;47351;53.326;-6.298;2023-06-04T13:10:34;102284.62;;;34.97;19.00
61488;BME280;47351;53.326;-6.298;2023-06-04T13:13:25;102282.16;;;34.85;19.04
61488;BME280;47351;53.326;-6.298;2023-06-04T13:16:16;102284.23;;;34.43;19.51
61488;BME280;47351;53.326;-6.298;2023-06-04T13:19:07;102285.90;;;34.38;19.88
61488;BME280;47351;53.326;-6.298;2023-06-04T13:21:58;102283.55;;;34.51;20.18
61488;BME280;47351;53.326;-6.298;2023-06-04T13:24:49;102282.94;;;34.57;20.37
61488;BME280;47351;53.326;-6.298;2023-06-04T13:27:40;102282.65;;;34.59;20.45
61488;BME280;47351;53.326;-6.298;2023-06-04T13:30:30;102277.05;;;34.48;20.61
61488;BME280;47351;53.326;-6.298;2023-06-04T13:33:21;102280.23;;;33.92;20.51
61488;BME280;47351;53.326;-6.298;2023-06-04T13:36:12;102281.11;;;33.25;21.44
61488;BME280;47351;53.326;-6.298;2023-06-04T13:39:03;102281.30;;;32.78;22.00
61488;BME280;47351;53.326;-6.298;2023-06-04T13:41:55;102277.44;;;32.54;22.49
61488;BME280;47351;53.326;-6.298;2023-06-04T13:44:46;102275.61;;;32.32;22.61
61488;BME280;47351;53.326;-6.298;2023-06-04T13:47:36;102278.13;;;31.83;22.83
61488;BME280;47351;53.326;-6.298;2023-06-04T13:50:27;102277.52;;;31.43;23.06
61488;BME280;47351;53.326;-6.298;2023-06-04T13:53:18;102277.73;;;31.25;23.71
61488;BME280;47351;53.326;-6.298;2023-06-04T13:56:09;102275.23;;;31.19;23.61
61488;BME280;47351;53.326;-6.298;2023-06-04T13:58:59;102271.23;;;31.12;23.87
61488;BME280;47351;53.326;-6.298;2023-06-04T14:01:50;102273.57;;;31.09;23.68
61488;BME280;47351;53.326;-6.298;2023-06-04T14:04:41;102272.35;;;30.91;24.19
61488;BME280;47351;53.326;-6.298;2023-06-04T14:07:32;102267.64;;;30.72;24.24
61488;BME280;47351;53.326;-6.298;2023-06-04T14:10:23;102268.67;;;30.62;24.65
61488;BME280;47351;53.326;-6.298;2023-06-04T14:13:13;102265.93;;;30.64;24.83
61488;BME280;47351;53.326;-6.298;2023-06-04T14:16:04;102265.46;;;30.59;24.87
61488;BME280;47351;53.326;-6.298;2023-06-04T14:18:55;102272.18;;;30.45;24.91
61488;BME280;47351;53.326;-6.298;2023-06-04T14:21:46;102267.67;;;30.40;24.96
61488;BME280;47351;53.326;-6.298;2023-06-04T14:24:37;102270.33;;;30.31;24.50
61488;BME280;47351;53.326;-6.298;2023-06-04T14:27:28;102270.90;;;30.22;24.80
61488;BME280;47351;53.326;-6.298;2023-06-04T14:30:18;102268.19;;;30.13;24.66
61488;BME280;47351;53.326;-6.298;2023-06-04T14:33:09;102265.00;;;29.97;24.69
61488;BME280;47351;53.326;-6.298;2023-06-04T14:36:00;102264.77;;;29.97;25.12
61488;BME280;47351;53.326;-6.298;2023-06-04T14:38:50;102265.76;;;29.87;24.78
61488;BME280;47351;53.326;-6.298;2023-06-04T14:41:41;102263.02;;;29.61;24.93
61488;BME280;47351;53.326;-6.298;2023-06-04T14:44:32;102262.77;;;29.42;25.03
61488;BME280;47351;53.326;-6.298;2023-06-04T14:47:23;102262.78;;;29.31;25.04
61488;BME280;47351;53.326;-6.298;2023-06-04T14:50:14;102265.11;;;29.18;24.78
61488;BME280;47351;53.326;-6.298;2023-06-04T14:53:04;102266.66;;;28.92;24.47
61488;BME280;47351;53.326;-6.298;2023-06-04T14:55:56;102260.23;;;28.69;24.73
61488;BME280;47351;53.326;-6.298;2023-06-04T14:58:47;102262.57;;;28.34;24.80
61488;BME280;47351;53.326;-6.298;2023-06-04T15:01:37;102260.98;;;27.96;25.17